Time,TemperatureF,DewpointF,PressureIn,WindDirection,WindDirectionDegrees,WindSpeedMPH,WindSpeedGustMPH,Humidity,HourlyPrecipIn,Conditions,Clouds,dailyrainin,SoftwareType,DateUTC
2013-09-28 00:00:00,59.3,48.8,30.11,SSE,148,0.0,0.0,68,0.00,,SKC,0.00,VWS V14.01,2013-09-28 04:00:00,
2013-09-28 00:01:00,59.2,48.7,30.11,SSE,148,0.0,0.0,68,0.00,,SKC,0.00,VWS V14.01,2013-09-28 04:01:00,
2013-09-28 00:04:00,58.7,49.0,30.11,SSE,148,0.0,0.0,70,0.00,,SKC,0.00,VWS V14.01,2013-09-28 04:04:00,
2013-09-28 00:09:00,58.1,48.8,30.11,SSE,148,0.0,0.0,71,0.00,,SKC,0.00,VWS V14.01,2013-09-28 04:09:00,
2013-09-28 00:14:00,58.0,48.7,30.11,SSE,148,0.0,0.0,71,0.00,,SKC,0.00,VWS V14.01,2013-09-28 04:14:00,
2013-09-28 00:19:00,57.6,48.7,30.10,SSE,148,0.0,0.0,72,0.00,,SKC,0.00,VWS V14.01,2013-09-28 04:19:00,
2013-09-28 00:24:00,57.5,48.6,30.10,SSE,148,0.0,0.0,72,0.00,,SKC,0.00,VWS V14.01,2013-09-28 04:24:00,
2013-09-28 00:29:00,57.3,48.4,30.10,SSE,148,0.0,0.0,72,0.00,,SKC,0.00,VWS V14.01,2013-09-28 04:29:00,
2013-09-28 00:30:00,57.0,48.1,30.10,SSE,148,0.0,0.0,72,0.00,,SKC,0.00,VWS V14.01,2013-09-28 04:30:00,
2013-09-28 00:34:00,57.0,48.1,30.10,SSE,148,0.0,0.0,72,0.00,,SKC,0.00,VWS V14.01,2013-09-28 04:34:00,
2013-09-28 00:40:00,56.9,48.0,30.10,SSE,148,0.0,0.0,72,0.00,,SKC,0.00,VWS V14.01,2013-09-28 04:40:00,
2013-09-28 00:45:00,56.6,48.4,30.10,SSE,148,0.0,0.0,74,0.00,,SKC,0.00,VWS V14.01,2013-09-28 04:45:00,
2013-09-28 00:50:00,56.5,48.7,30.10,SSE,148,0.0,0.0,75,0.00,,SKC,0.00,VWS V14.01,2013-09-28 04:50:00,
2013-09-28 00:55:00,56.2,48.8,30.10,SSE,148,0.0,0.0,76,0.00,,SKC,0.00,VWS V14.01,2013-09-28 04:55:00,
2013-09-28 01:00:00,56.0,48.9,30.10,SSE,148,0.0,0.0,77,0.00,,SKC,0.00,VWS V14.01,2013-09-28 05:00:00,
2013-09-28 01:05:00,55.7,48.6,30.11,SSE,148,0.0,0.0,77,0.00,,SKC,0.00,VWS V14.01,2013-09-28 05:05:00,
2013-09-28 01:10:00,55.7,49.0,30.11,SSE,148,0.0,0.0,78,0.00,,SKC,0.00,VWS V14.01,2013-09-28 05:10:00,
2013-09-28 01:15:00,55.4,49.0,30.11,SSE,148,0.0,0.0,79,0.00,,SKC,0.00,VWS V14.01,2013-09-28 05:15:00,
2013-09-28 01:20:00,55.4,49.0,30.10,SSE,148,0.0,0.0,79,0.00,,SKC,0.00,VWS V14.01,2013-09-28 05:20:00,
2013-09-28 01:25:00,55.3,48.9,30.10,SSE,148,0.0,0.0,79,0.00,,SKC,0.00,VWS V14.01,2013-09-28 05:25:00,
2013-09-28 01:30:00,55.1,49.0,30.10,SSE,148,0.0,0.0,80,0.00,,SKC,0.00,VWS V14.01,2013-09-28 05:30:00,
2013-09-28 01:35:00,55.0,49.3,30.10,SSE,148,0.0,0.0,81,0.00,,SKC,0.00,VWS V14.01,2013-09-28 05:35:00,
2013-09-28 01:41:00,54.8,49.4,30.10,SSE,148,0.0,0.0,82,0.00,,SKC,0.00,VWS V14.01,2013-09-28 05:41:00,
2013-09-28 01:46:00,54.7,49.3,30.10,SSE,148,0.0,0.0,82,0.00,,SKC,0.00,VWS V14.01,2013-09-28 05:46:00,
2013-09-28 01:51:00,54.7,49.3,30.10,SSE,148,0.0,0.0,82,0.00,,SKC,0.00,VWS V14.01,2013-09-28 05:51:00,
2013-09-28 01:56:00,54.5,49.1,30.10,SSE,148,0.0,0.0,82,0.00,,SKC,0.00,VWS V14.01,2013-09-28 05:56:00,
2013-09-28 02:00:00,54.4,48.7,30.11,SSE,148,0.0,0.0,81,0.00,,SKC,0.00,VWS V14.01,2013-09-28 06:00:00,
2013-09-28 02:01:00,54.2,48.5,30.10,SSE,148,0.0,0.0,81,0.00,,SKC,0.00,VWS V14.01,2013-09-28 06:01:00,
2013-09-28 02:06:00,54.4,48.7,30.11,SSE,148,0.0,0.0,81,0.00,,SKC,0.00,VWS V14.01,2013-09-28 06:06:00,
2013-09-28 02:11:00,54.2,48.5,30.11,SSE,148,0.0,0.0,81,0.00,,SKC,0.00,VWS V14.01,2013-09-28 06:11:00,
2013-09-28 02:16:00,54.1,48.4,30.11,SSE,148,0.0,0.0,81,0.00,,SKC,0.00,VWS V14.01,2013-09-28 06:16:00,
2013-09-28 02:21:00,54.1,48.4,30.10,SSE,148,0.0,0.0,81,0.00,,SKC,0.00,VWS V14.01,2013-09-28 06:21:00,
2013-09-28 02:26:00,53.9,48.2,30.10,SSE,148,0.0,0.0,81,0.00,,SKC,0.00,VWS V14.01,2013-09-28 06:26:00,
2013-09-28 02:30:00,53.8,48.1,30.10,SSE,148,0.0,0.0,81,0.00,,SKC,0.00,VWS V14.01,2013-09-28 06:30:00,
2013-09-28 02:31:00,53.8,48.1,30.10,SSE,148,0.0,0.0,81,0.00,,SKC,0.00,VWS V14.01,2013-09-28 06:31:00,
2013-09-28 02:36:00,53.6,48.2,30.10,SSE,148,0.0,0.0,82,0.00,,SKC,0.00,VWS V14.01,2013-09-28 06:36:00,
2013-09-28 02:42:00,53.6,48.2,30.10,SSE,148,0.0,0.0,82,0.00,,SKC,0.00,VWS V14.01,2013-09-28 06:42:00,
2013-09-28 02:47:00,53.3,48.0,30.10,SSE,148,0.0,0.0,82,0.00,,SKC,0.00,VWS V14.01,2013-09-28 06:47:00,
2013-09-28 02:52:00,53.6,48.6,30.11,SSE,148,0.0,0.0,83,0.00,,SKC,0.00,VWS V14.01,2013-09-28 06:52:00,
2013-09-28 02:57:00,53.6,47.9,30.11,SSE,148,0.0,0.0,81,0.00,,SKC,0.00,VWS V14.01,2013-09-28 06:57:00,
2013-09-28 03:00:00,53.2,48.5,30.11,SSE,148,0.0,0.0,84,0.00,,SKC,0.00,VWS V14.01,2013-09-28 07:00:00,
2013-09-28 03:02:00,53.3,48.3,30.11,SSE,148,0.0,0.0,83,0.00,,SKC,0.00,VWS V14.01,2013-09-28 07:02:00,
2013-09-28 03:07:00,53.1,48.7,30.11,SSE,148,0.0,0.0,85,0.00,,SKC,0.00,VWS V14.01,2013-09-28 07:07:00,
2013-09-28 03:12:00,52.8,48.7,30.11,SSE,148,0.0,0.0,86,0.00,,SKC,0.00,VWS V14.01,2013-09-28 07:12:00,
2013-09-28 03:17:00,52.5,48.4,30.11,SSE,148,0.0,0.0,86,0.00,,SKC,0.00,VWS V14.01,2013-09-28 07:17:00,
2013-09-28 03:22:00,52.5,48.8,30.10,SSE,148,0.0,0.0,87,0.00,,SKC,0.00,VWS V14.01,2013-09-28 07:22:00,
2013-09-28 03:27:00,52.3,48.5,30.10,SSE,148,0.0,0.0,87,0.00,,SKC,0.00,VWS V14.01,2013-09-28 07:27:00,
2013-09-28 03:32:00,52.0,48.3,30.10,SSE,148,0.0,0.0,87,0.00,,SKC,0.00,VWS V14.01,2013-09-28 07:32:00,
2013-09-28 03:37:00,51.9,48.2,30.11,SSE,148,0.0,0.0,87,0.00,,SKC,0.00,VWS V14.01,2013-09-28 07:37:00,
2013-09-28 03:43:00,51.7,48.3,30.11,SSE,148,0.0,0.0,88,0.00,,SKC,0.00,VWS V14.01,2013-09-28 07:43:00,
2013-09-28 03:48:00,51.6,48.2,30.11,SSE,148,0.0,0.0,88,0.00,,SKC,0.00,VWS V14.01,2013-09-28 07:48:00,
2013-09-28 03:53:00,51.6,48.2,30.10,SSE,148,0.0,0.0,88,0.00,,SKC,0.00,VWS V14.01,2013-09-28 07:53:00,
2013-09-28 03:58:00,51.4,48.3,30.10,SSE,148,0.0,0.0,89,0.00,,SKC,0.00,VWS V14.01,2013-09-28 07:58:00,
2013-09-28 04:00:00,51.3,48.2,30.10,SSE,148,0.0,0.0,89,0.00,,SKC,0.00,VWS V14.01,2013-09-28 08:00:00,
2013-09-28 04:03:00,51.3,48.2,30.10,SSE,148,0.0,0.0,89,0.00,,SKC,0.00,VWS V14.01,2013-09-28 08:03:00,
2013-09-28 04:08:00,51.3,48.2,30.10,SSE,148,0.0,0.0,89,0.00,,SKC,0.00,VWS V14.01,2013-09-28 08:08:00,
2013-09-28 04:13:00,51.3,48.2,30.10,SSE,148,0.0,0.0,89,0.00,,SKC,0.00,VWS V14.01,2013-09-28 08:13:00,
2013-09-28 04:18:00,51.3,48.2,30.10,SSE,148,0.0,0.0,89,0.00,,SKC,0.00,VWS V14.01,2013-09-28 08:18:00,
2013-09-28 04:23:00,51.1,48.0,30.11,SSE,148,0.0,0.0,89,0.00,,SKC,0.00,VWS V14.01,2013-09-28 08:23:00,
2013-09-28 04:28:00,51.1,48.0,30.11,SSE,148,0.0,0.0,89,0.00,,SKC,0.00,VWS V14.01,2013-09-28 08:28:00,
2013-09-28 04:30:00,51.1,48.0,30.11,SSE,148,0.0,0.0,89,0.00,,SKC,0.00,VWS V14.01,2013-09-28 08:30:00,
2013-09-28 04:33:00,51.1,48.0,30.11,SSE,148,0.0,0.0,89,0.00,,SKC,0.00,VWS V14.01,2013-09-28 08:33:00,
2013-09-28 04:38:00,51.0,47.9,30.11,SSE,148,0.0,0.0,89,0.00,,SKC,0.00,VWS V14.01,2013-09-28 08:38:00,
2013-09-28 04:43:00,50.8,47.7,30.11,SSE,148,0.0,0.0,89,0.00,,SKC,0.00,VWS V14.01,2013-09-28 08:43:00,
2013-09-28 04:48:00,50.8,48.0,30.11,SSE,148,0.0,0.0,90,0.00,,SKC,0.00,VWS V14.01,2013-09-28 08:48:00,
2013-09-28 04:53:00,50.8,48.0,30.11,SSE,148,0.0,0.0,90,0.00,,SKC,0.00,VWS V14.01,2013-09-28 08:53:00,
2013-09-28 04:59:00,50.7,47.9,30.11,SSE,148,0.0,0.0,90,0.00,,SKC,0.00,VWS V14.01,2013-09-28 08:59:00,
2013-09-28 05:04:00,50.7,47.9,30.11,SSE,148,0.0,0.0,90,0.00,,SKC,0.00,VWS V14.01,2013-09-28 09:04:00,
2013-09-28 05:09:00,50.5,47.7,30.11,SSE,148,0.0,0.0,90,0.00,,SKC,0.00,VWS V14.01,2013-09-28 09:09:00,
2013-09-28 05:13:00,50.5,47.7,30.11,SSE,148,0.0,0.0,90,0.00,,SKC,0.00,VWS V14.01,2013-09-28 09:13:00,
2013-09-28 05:19:00,50.5,47.7,30.11,SSE,148,0.0,0.0,90,0.00,,SKC,0.00,VWS V14.01,2013-09-28 09:19:00,
2013-09-28 05:24:00,50.4,47.6,30.11,SSE,148,0.0,0.0,90,0.00,,SKC,0.00,VWS V14.01,2013-09-28 09:24:00,
2013-09-28 05:29:00,50.2,47.4,30.11,SSE,148,0.0,0.0,90,0.00,,SKC,0.00,VWS V14.01,2013-09-28 09:29:00,
2013-09-28 05:30:00,50.2,47.7,30.12,SSE,148,0.0,0.0,91,0.00,,SKC,0.00,VWS V14.01,2013-09-28 09:30:00,
2013-09-28 05:34:00,50.2,47.7,30.12,SSE,148,0.0,0.0,91,0.00,,SKC,0.00,VWS V14.01,2013-09-28 09:34:00,
2013-09-28 05:39:00,50.1,47.6,30.12,SSE,148,0.0,0.0,91,0.00,,SKC,0.00,VWS V14.01,2013-09-28 09:39:00,
2013-09-28 05:44:00,50.1,47.9,30.12,SSE,148,0.0,0.0,92,0.00,,SKC,0.00,VWS V14.01,2013-09-28 09:44:00,
2013-09-28 05:49:00,49.9,47.7,30.12,SSE,148,0.0,0.0,92,0.00,,SKC,0.00,VWS V14.01,2013-09-28 09:49:00,
2013-09-28 05:54:00,49.9,47.7,30.12,SSE,148,0.0,0.0,92,0.00,,SKC,0.00,VWS V14.01,2013-09-28 09:54:00,
2013-09-28 05:59:00,49.9,47.7,30.12,SSE,148,0.0,0.0,92,0.00,,SKC,0.00,VWS V14.01,2013-09-28 09:59:00,
2013-09-28 06:00:00,49.9,47.7,30.12,SSE,148,0.0,0.0,92,0.00,,SKC,0.00,VWS V14.01,2013-09-28 10:00:00,
2013-09-28 06:04:00,49.9,47.7,30.12,SSE,148,0.0,0.0,92,0.00,,SKC,0.00,VWS V14.01,2013-09-28 10:04:00,
2013-09-28 06:09:00,49.9,47.7,30.12,SSE,148,0.0,0.0,92,0.00,,SKC,0.00,VWS V14.01,2013-09-28 10:09:00,
2013-09-28 06:14:00,49.8,47.6,30.12,SSE,148,0.0,0.0,92,0.00,,SKC,0.00,VWS V14.01,2013-09-28 10:14:00,
2013-09-28 06:19:00,49.6,47.4,30.13,SSE,148,0.0,0.0,92,0.00,,SKC,0.00,VWS V14.01,2013-09-28 10:19:00,
2013-09-28 06:24:00,49.6,47.7,30.13,SSE,148,0.0,0.0,93,0.00,,SKC,0.00,VWS V14.01,2013-09-28 10:24:00,
2013-09-28 06:29:00,49.8,47.9,30.13,SSE,148,0.0,0.0,93,0.00,,SKC,0.00,VWS V14.01,2013-09-28 10:29:00,
2013-09-28 06:30:00,49.6,47.7,30.13,SSE,148,0.0,0.0,93,0.00,,SKC,0.00,VWS V14.01,2013-09-28 10:30:00,
2013-09-28 06:34:00,49.6,47.7,30.13,SSE,148,0.0,0.0,93,0.00,,SKC,0.00,VWS V14.01,2013-09-28 10:34:00,
2013-09-28 06:40:00,49.6,47.7,30.13,SSE,148,0.0,0.0,93,0.00,,SKC,0.00,VWS V14.01,2013-09-28 10:40:00,
2013-09-28 06:45:00,49.5,47.6,30.13,SSE,148,0.0,0.0,93,0.00,,SKC,0.00,VWS V14.01,2013-09-28 10:45:00,
2013-09-28 06:50:00,49.5,47.6,30.13,SSE,148,0.0,0.0,93,0.00,,SKC,0.00,VWS V14.01,2013-09-28 10:50:00,
2013-09-28 06:55:00,49.5,47.6,30.13,SSE,148,0.0,0.0,93,0.00,,SKC,0.00,VWS V14.01,2013-09-28 10:55:00,
2013-09-28 07:00:00,49.4,47.5,30.13,SSE,148,0.0,0.0,93,0.00,,SKC,0.00,VWS V14.01,2013-09-28 11:00:00,
2013-09-28 07:05:00,49.4,47.5,30.14,SSE,148,0.0,0.0,93,0.00,,SKC,0.00,VWS V14.01,2013-09-28 11:05:00,
2013-09-28 07:10:00,49.4,47.5,30.14,SSE,148,0.0,0.0,93,0.00,,SKC,0.00,VWS V14.01,2013-09-28 11:10:00,
2013-09-28 07:15:00,49.2,47.3,30.14,SSE,148,0.0,0.0,93,0.00,,SKC,0.00,VWS V14.01,2013-09-28 11:15:00,
2013-09-28 07:20:00,49.2,47.5,30.14,SSE,148,0.0,0.0,94,0.00,,SKC,0.00,VWS V14.01,2013-09-28 11:20:00,
2013-09-28 07:25:00,49.2,47.5,30.14,SSE,148,0.0,0.0,94,0.00,,SKC,0.00,VWS V14.01,2013-09-28 11:25:00,
2013-09-28 07:30:00,49.2,47.5,30.14,SSE,148,0.0,0.0,94,0.00,,SKC,0.00,VWS V14.01,2013-09-28 11:30:00,
2013-09-28 07:35:00,49.1,47.5,30.15,SSE,148,0.0,0.0,94,0.00,,SKC,0.00,VWS V14.01,2013-09-28 11:35:00,
2013-09-28 07:40:00,49.1,47.5,30.15,SSE,148,0.0,0.0,94,0.00,,SKC,0.00,VWS V14.01,2013-09-28 11:40:00,
2013-09-28 07:45:00,48.9,47.2,30.15,SSE,148,0.0,0.0,94,0.00,,SKC,0.00,VWS V14.01,2013-09-28 11:45:00,
2013-09-28 07:50:00,48.9,47.5,30.15,SSE,148,0.0,0.0,95,0.00,,SKC,0.00,VWS V14.01,2013-09-28 11:50:00,
2013-09-28 07:55:00,48.9,47.5,30.15,SSE,148,0.0,0.0,95,0.00,,SKC,0.00,VWS V14.01,2013-09-28 11:55:00,
2013-09-28 08:00:00,48.9,47.5,30.15,SSE,148,0.0,0.0,95,0.00,,SKC,0.00,VWS V14.01,2013-09-28 12:00:00,
2013-09-28 08:01:00,48.9,47.5,30.15,SSE,148,0.0,0.0,95,0.00,,SKC,0.00,VWS V14.01,2013-09-28 12:01:00,
2013-09-28 08:06:00,48.9,47.5,30.15,SSE,148,0.0,0.0,95,0.00,,SKC,0.00,VWS V14.01,2013-09-28 12:06:00,
2013-09-28 08:11:00,49.1,47.7,30.15,SSE,148,0.0,0.0,95,0.00,,SKC,0.00,VWS V14.01,2013-09-28 12:11:00,
2013-09-28 08:16:00,49.2,48.1,30.15,SSE,148,0.0,0.0,96,0.00,,SKC,0.00,VWS V14.01,2013-09-28 12:16:00,
2013-09-28 08:21:00,49.5,48.4,30.16,SSE,148,0.0,0.0,96,0.00,,SKC,0.00,VWS V14.01,2013-09-28 12:21:00,
2013-09-28 08:26:00,49.8,48.7,30.16,SSE,148,0.0,0.0,96,0.00,,SKC,0.00,VWS V14.01,2013-09-28 12:26:00,
2013-09-28 08:30:00,50.8,49.7,30.15,SSE,148,0.0,1.0,96,0.00,,SKC,0.00,VWS V14.01,2013-09-28 12:30:00,
2013-09-28 08:31:00,50.2,49.1,30.16,SSE,148,1.0,1.0,96,0.00,,SKC,0.00,VWS V14.01,2013-09-28 12:31:00,
2013-09-28 08:36:00,50.8,49.4,30.15,SSE,148,0.0,0.0,95,0.00,,SKC,0.00,VWS V14.01,2013-09-28 12:36:00,
2013-09-28 08:41:00,51.4,50.0,30.15,SSE,148,0.0,0.0,95,0.00,,SKC,0.00,VWS V14.01,2013-09-28 12:41:00,
2013-09-28 08:46:00,52.0,50.3,30.15,SSE,148,0.0,0.0,94,0.00,,SKC,0.00,VWS V14.01,2013-09-28 12:46:00,
2013-09-28 08:51:00,52.6,50.3,30.15,SSE,148,0.0,0.0,92,0.00,,SKC,0.00,VWS V14.01,2013-09-28 12:51:00,
2013-09-28 08:56:00,53.1,50.5,30.15,SSE,148,0.0,0.0,91,0.00,,SKC,0.00,VWS V14.01,2013-09-28 12:56:00,
2013-09-28 09:00:00,54.4,51.2,30.16,SSE,148,0.0,0.0,89,0.00,,SKC,0.00,VWS V14.01,2013-09-28 13:00:00,
2013-09-28 09:01:00,53.8,50.9,30.15,SSE,148,0.0,0.0,90,0.00,,SKC,0.00,VWS V14.01,2013-09-28 13:01:00,
2013-09-28 09:06:00,54.5,51.3,30.16,SSE,148,0.0,0.0,89,0.00,,SKC,0.00,VWS V14.01,2013-09-28 13:06:00,
2013-09-28 09:11:00,55.1,51.6,30.16,SSE,148,0.0,0.0,88,0.00,,SKC,0.00,VWS V14.01,2013-09-28 13:11:00,
2013-09-28 09:16:00,56.5,52.0,30.16,SSE,148,0.0,1.0,85,0.00,,SKC,0.00,VWS V14.01,2013-09-28 13:16:00,
2013-09-28 09:21:00,57.5,52.1,30.16,SSE,148,0.0,3.0,82,0.00,,SKC,0.00,VWS V14.01,2013-09-28 13:21:00,
2013-09-28 09:26:00,58.7,52.2,30.16,ESE,118,0.0,3.0,79,0.00,,SKC,0.00,VWS V14.01,2013-09-28 13:26:00,
2013-09-28 09:30:00,60.2,52.3,30.16,SE,129,0.0,3.0,75,0.00,,SKC,0.00,VWS V14.01,2013-09-28 13:30:00,
2013-09-28 09:31:00,59.9,52.3,30.16,ESE,118,0.0,3.0,76,0.00,,SKC,0.00,VWS V14.01,2013-09-28 13:31:00,
2013-09-28 09:37:00,60.5,52.2,30.16,SE,132,0.0,1.0,74,0.00,,SKC,0.00,VWS V14.01,2013-09-28 13:37:00,
2013-09-28 09:42:00,61.5,52.4,30.16,SE,131,0.0,2.0,72,0.00,,SKC,0.00,VWS V14.01,2013-09-28 13:42:00,
2013-09-28 09:47:00,62.3,52.4,30.16,SE,131,0.0,3.0,70,0.00,,SKC,0.00,VWS V14.01,2013-09-28 13:47:00,
2013-09-28 09:52:00,62.9,52.6,30.15,SSW,195,1.0,3.0,69,0.00,,SKC,0.00,VWS V14.01,2013-09-28 13:52:00,
2013-09-28 09:57:00,63.5,52.4,30.15,SE,144,0.0,6.0,67,0.00,,SKC,0.00,VWS V14.01,2013-09-28 13:57:00,
2013-09-28 10:00:00,64.5,52.1,30.15,ESE,113,1.0,6.0,64,0.00,,SKC,0.00,VWS V14.01,2013-09-28 14:00:00,
2013-09-28 10:02:00,64.3,52.3,30.15,SE,129,5.0,6.0,65,0.00,,SKC,0.00,VWS V14.01,2013-09-28 14:02:00,
2013-09-28 10:07:00,64.7,52.3,30.15,ESE,122,1.0,4.0,64,0.00,,SKC,0.00,VWS V14.01,2013-09-28 14:07:00,
2013-09-28 10:12:00,65.2,52.7,30.15,SSW,193,0.0,4.0,64,0.00,,SKC,0.00,VWS V14.01,2013-09-28 14:12:00,
2013-09-28 10:17:00,65.8,52.4,30.15,SE,140,0.0,4.0,62,0.00,,SKC,0.00,VWS V14.01,2013-09-28 14:17:00,
2013-09-28 10:22:00,66.4,53.4,30.16,South,190,0.0,5.0,63,0.00,,SKC,0.00,VWS V14.01,2013-09-28 14:22:00,
2013-09-28 10:27:00,67.1,53.7,30.16,ESE,102,0.0,5.0,62,0.00,,SKC,0.00,VWS V14.01,2013-09-28 14:27:00,
2013-09-28 10:30:00,67.9,53.1,30.16,SSE,157,0.0,5.0,59,0.00,,SKC,0.00,VWS V14.01,2013-09-28 14:30:00,
2013-09-28 10:32:00,67.6,53.7,30.16,ESE,106,0.0,5.0,61,0.00,,SKC,0.00,VWS V14.01,2013-09-28 14:32:00,
2013-09-28 10:37:00,68.1,53.2,30.16,South,181,0.0,3.0,59,0.00,,SKC,0.00,VWS V14.01,2013-09-28 14:37:00,
2013-09-28 10:42:00,68.9,53.5,30.16,SE,143,2.0,3.0,58,0.00,,SKC,0.00,VWS V14.01,2013-09-28 14:42:00,
2013-09-28 10:47:00,69.3,53.9,30.16,SSE,154,0.0,4.0,58,0.00,,SKC,0.00,VWS V14.01,2013-09-28 14:47:00,
2013-09-28 10:53:00,69.8,54.4,30.15,South,180,0.0,4.0,58,0.00,,SKC,0.00,VWS V14.01,2013-09-28 14:53:00,
2013-09-28 10:58:00,70.3,54.4,30.15,ESE,122,0.0,4.0,57,0.00,,SKC,0.00,VWS V14.01,2013-09-28 14:58:00,
2013-09-28 11:00:00,70.6,54.6,30.15,SE,136,0.0,5.0,57,0.00,,SKC,0.00,VWS V14.01,2013-09-28 15:00:00,
2013-09-28 11:03:00,70.3,53.9,30.15,SE,136,1.0,5.0,56,0.00,,SKC,0.00,VWS V14.01,2013-09-28 15:03:00,
2013-09-28 11:08:00,70.9,54.4,30.15,SE,136,0.0,1.0,56,0.00,,SKC,0.00,VWS V14.01,2013-09-28 15:08:00,
2013-09-28 11:13:00,71.1,54.1,30.15,SE,124,3.0,6.0,55,0.00,,SKC,0.00,VWS V14.01,2013-09-28 15:13:00,
2013-09-28 11:18:00,71.6,54.6,30.15,East,96,0.0,6.0,55,0.00,,SKC,0.00,VWS V14.01,2013-09-28 15:18:00,
2013-09-28 11:23:00,72.3,54.7,30.15,SSE,153,0.0,6.0,54,0.00,,SKC,0.00,VWS V14.01,2013-09-28 15:23:00,
2013-09-28 11:28:00,72.5,54.9,30.15,SE,133,0.0,6.0,54,0.00,,SKC,0.00,VWS V14.01,2013-09-28 15:28:00,
2013-09-28 12:01:00,74.9,56.1,30.13,ESE,123,2.0,2.0,52,0.00,,SKC,0.00,VWS V14.01,2013-09-28 16:01:00,
2013-09-28 12:06:00,74.9,55.0,30.13,ESE,109,3.0,9.0,50,0.00,,SKC,0.00,VWS V14.01,2013-09-28 16:06:00,
2013-09-28 12:11:00,75.1,54.7,30.13,SE,127,3.0,9.0,49,0.00,,SKC,0.00,VWS V14.01,2013-09-28 16:11:00,
2013-09-28 12:16:00,75.4,55.5,30.13,ESE,108,2.0,9.0,50,0.00,,SKC,0.00,VWS V14.01,2013-09-28 16:16:00,
2013-09-28 12:21:00,75.4,54.9,30.12,SE,130,1.0,9.0,49,0.00,,SKC,0.00,VWS V14.01,2013-09-28 16:21:00,
2013-09-28 12:26:00,75.8,55.3,30.12,ESE,111,0.0,9.0,49,0.00,,SKC,0.00,VWS V14.01,2013-09-28 16:26:00,
2013-09-28 12:31:00,76.1,55.0,30.12,SSE,167,4.0,9.0,48,0.00,,SKC,0.00,VWS V14.01,2013-09-28 16:31:00,
2013-09-28 12:36:00,76.5,54.8,30.12,SE,135,0.0,5.0,47,0.00,,SKC,0.00,VWS V14.01,2013-09-28 16:36:00,
2013-09-28 12:41:00,76.7,54.4,30.12,NW,307,0.0,5.0,46,0.00,,SKC,0.00,VWS V14.01,2013-09-28 16:41:00,
2013-09-28 12:46:00,76.7,55.0,30.12,SW,232,0.0,10.0,47,0.00,,SKC,0.00,VWS V14.01,2013-09-28 16:46:00,
2013-09-28 12:51:00,76.7,54.4,30.11,SW,233,4.0,10.0,46,0.00,,SKC,0.00,VWS V14.01,2013-09-28 16:51:00,
2013-09-28 12:57:00,76.5,54.2,30.11,SE,124,1.0,10.0,46,0.00,,SKC,0.00,VWS V14.01,2013-09-28 16:57:00,
2013-09-28 13:02:00,76.8,55.1,30.11,South,183,0.0,10.0,47,0.00,,SKC,0.00,VWS V14.01,2013-09-28 17:02:00,
2013-09-28 13:07:00,77.4,54.4,30.11,South,172,0.0,3.0,45,0.00,,SKC,0.00,VWS V14.01,2013-09-28 17:07:00,
2013-09-28 13:12:00,77.4,55.0,30.11,SSW,208,0.0,4.0,46,0.00,,SKC,0.00,VWS V14.01,2013-09-28 17:12:00,
2013-09-28 13:17:00,77.4,55.6,30.11,SSE,156,5.0,10.0,47,0.00,,SKC,0.00,VWS V14.01,2013-09-28 17:17:00,
2013-09-28 13:22:00,77.6,55.2,30.10,SE,146,1.0,10.0,46,0.00,,SKC,0.00,VWS V14.01,2013-09-28 17:22:00,
2013-09-28 13:27:00,77.6,55.8,30.10,SSE,165,0.0,10.0,47,0.00,,SKC,0.00,VWS V14.01,2013-09-28 17:27:00,
2013-09-28 13:32:00,77.9,56.7,30.10,SW,233,2.0,10.0,48,0.00,,SKC,0.00,VWS V14.01,2013-09-28 17:32:00,
2013-09-28 13:37:00,77.6,54.6,30.09,WSW,257,0.0,3.0,45,0.00,,SKC,0.00,VWS V14.01,2013-09-28 17:37:00,
2013-09-28 13:42:00,77.9,54.3,30.09,ESE,112,0.0,6.0,44,0.00,,SKC,0.00,VWS V14.01,2013-09-28 17:42:00,
2013-09-28 13:47:00,78.1,55.0,30.09,WNW,299,0.0,11.0,45,0.00,,SKC,0.00,VWS V14.01,2013-09-28 17:47:00,
2013-09-28 13:52:00,78.3,55.8,30.09,WSW,243,1.0,11.0,46,0.00,,SKC,0.00,VWS V14.01,2013-09-28 17:52:00,
2013-09-28 13:57:00,78.3,56.4,30.09,SSE,155,1.0,11.0,47,0.00,,SKC,0.00,VWS V14.01,2013-09-28 17:57:00,
2013-09-28 14:02:00,78.8,56.3,30.09,ESE,121,1.0,11.0,46,0.00,,SKC,0.00,VWS V14.01,2013-09-28 18:02:00,
2013-09-28 14:08:00,78.8,54.4,30.07,ESE,117,4.0,13.0,43,0.00,,SKC,0.00,VWS V14.01,2013-09-28 18:08:00,
2013-09-28 14:13:00,78.8,55.1,30.07,SSW,208,1.0,13.0,44,0.00,,SKC,0.00,VWS V14.01,2013-09-28 18:13:00,
2013-09-28 14:18:00,79.4,55.6,30.07,SW,220,1.0,13.0,44,0.00,,SKC,0.00,VWS V14.01,2013-09-28 18:18:00,
2013-09-28 14:23:00,79.2,54.2,30.07,South,171,3.0,13.0,42,0.00,,SKC,0.00,VWS V14.01,2013-09-28 18:23:00,
2013-09-28 14:28:00,79.0,54.0,30.07,South,172,4.0,13.0,42,0.00,,SKC,0.00,VWS V14.01,2013-09-28 18:28:00,
2013-09-28 14:33:00,79.0,54.0,30.07,SE,127,2.0,13.0,42,0.00,,SKC,0.00,VWS V14.01,2013-09-28 18:33:00,
2013-09-28 14:38:00,79.2,54.8,30.06,West,277,3.0,4.0,43,0.00,,SKC,0.00,VWS V14.01,2013-09-28 18:38:00,
2013-09-28 14:43:00,79.2,53.5,30.06,SW,230,2.0,7.0,41,0.00,,SKC,0.00,VWS V14.01,2013-09-28 18:43:00,
2013-09-28 14:48:00,79.4,54.3,30.06,West,269,0.0,7.0,42,0.00,,SKC,0.00,VWS V14.01,2013-09-28 18:48:00,
2013-09-28 14:53:00,79.9,54.8,30.06,South,175,0.0,11.0,42,0.00,,SKC,0.00,VWS V14.01,2013-09-28 18:53:00,
2013-09-28 14:58:00,79.8,53.4,30.06,ESE,122,1.0,11.0,40,0.00,,SKC,0.00,VWS V14.01,2013-09-28 18:58:00,
2013-09-28 15:04:00,79.9,54.8,30.06,SW,231,2.0,11.0,42,0.00,,SKC,0.00,VWS V14.01,2013-09-28 19:04:00,
2013-09-28 15:09:00,79.8,54.7,30.05,SW,224,0.0,6.0,42,0.00,,SKC,0.00,VWS V14.01,2013-09-28 19:09:00,
2013-09-28 15:14:00,79.8,54.0,30.05,SE,130,0.0,6.0,41,0.00,,SKC,0.00,VWS V14.01,2013-09-28 19:14:00,
2013-09-28 15:19:00,80.3,53.8,30.05,SE,128,3.0,9.0,40,0.00,,SKC,0.00,VWS V14.01,2013-09-28 19:19:00,
2013-09-28 15:24:00,80.3,54.5,30.05,SSW,209,1.0,13.0,41,0.00,,SKC,0.00,VWS V14.01,2013-09-28 19:24:00,
2013-09-28 15:29:00,80.5,54.0,30.05,SE,145,0.0,13.0,40,0.00,,SKC,0.00,VWS V14.01,2013-09-28 19:29:00,
2013-09-28 15:34:00,80.1,52.9,30.04,SSE,149,1.0,13.0,39,0.00,,SKC,0.00,VWS V14.01,2013-09-28 19:34:00,
2013-09-28 15:39:00,80.1,55.0,30.04,SE,140,0.0,6.0,42,0.00,,SKC,0.00,VWS V14.01,2013-09-28 19:39:00,
2013-09-28 15:44:00,80.3,53.8,30.04,ESE,110,3.0,6.0,40,0.00,,SKC,0.00,VWS V14.01,2013-09-28 19:44:00,
2013-09-28 15:49:00,79.6,53.8,30.04,SSE,148,4.0,8.0,41,0.00,,SKC,0.00,VWS V14.01,2013-09-28 19:49:00,
2013-09-28 15:54:00,79.2,53.5,30.04,SW,224,0.0,9.0,41,0.00,,SKC,0.00,VWS V14.01,2013-09-28 19:54:00,
2013-09-28 16:00:00,79.4,53.7,30.04,East,98,1.0,9.0,41,0.00,,SKC,0.00,VWS V14.01,2013-09-28 20:00:00,
2013-09-28 16:05:00,79.9,54.1,30.04,WNW,292,0.0,9.0,41,0.00,,SKC,0.00,VWS V14.01,2013-09-28 20:05:00,
2013-09-28 16:10:00,80.3,54.5,30.04,SSE,167,0.0,6.0,41,0.00,,SKC,0.00,VWS V14.01,2013-09-28 20:10:00,
2013-09-28 16:15:00,80.3,54.5,30.04,SW,225,0.0,9.0,41,0.00,,SKC,0.00,VWS V14.01,2013-09-28 20:15:00,
2013-09-28 16:20:00,80.9,55.0,30.02,WSW,247,3.0,9.0,41,0.00,,SKC,0.00,VWS V14.01,2013-09-28 20:20:00,
2013-09-28 16:25:00,80.9,53.7,30.02,SW,231,3.0,9.0,39,0.00,,SKC,0.00,VWS V14.01,2013-09-28 20:25:00,
2013-09-28 16:30:00,80.5,54.0,30.02,SSW,207,5.0,10.0,40,0.00,,SKC,0.00,VWS V14.01,2013-09-28 20:30:00,
2013-09-28 16:35:00,79.8,54.0,30.03,WSW,250,3.0,3.0,41,0.00,,SKC,0.00,VWS V14.01,2013-09-28 20:35:00,
2013-09-28 16:40:00,79.9,54.1,30.03,SSW,207,0.0,6.0,41,0.00,,SKC,0.00,VWS V14.01,2013-09-28 20:40:00,
2013-09-28 16:46:00,79.9,54.1,30.03,SE,143,0.0,8.0,41,0.00,,SKC,0.00,VWS V14.01,2013-09-28 20:46:00,
2013-09-28 16:51:00,80.1,55.0,30.03,SSW,203,3.0,9.0,42,0.00,,SKC,0.00,VWS V14.01,2013-09-28 20:51:00,
2013-09-28 16:56:00,80.5,54.0,30.03,SSW,200,1.0,9.0,40,0.00,,SKC,0.00,VWS V14.01,2013-09-28 20:56:00,
2013-09-28 17:01:00,80.5,54.7,30.03,ESE,109,2.0,9.0,41,0.00,,SKC,0.00,VWS V14.01,2013-09-28 21:01:00,
2013-09-28 17:06:00,80.1,53.6,30.03,WSW,255,3.0,3.0,40,0.00,,SKC,0.00,VWS V14.01,2013-09-28 21:06:00,
2013-09-28 17:11:00,79.9,53.5,30.03,ESE,114,10.0,12.0,40,0.00,,SKC,0.00,VWS V14.01,2013-09-28 21:11:00,
2013-09-28 17:16:00,79.6,53.8,30.03,SE,146,0.0,12.0,41,0.00,,SKC,0.00,VWS V14.01,2013-09-28 21:16:00,
2013-09-28 17:21:00,79.4,53.7,30.02,SSE,159,0.0,12.0,41,0.00,,SKC,0.00,VWS V14.01,2013-09-28 21:21:00,
2013-09-28 17:26:00,79.0,55.2,30.02,WNW,290,0.0,12.0,44,0.00,,SKC,0.00,VWS V14.01,2013-09-28 21:26:00,
2013-09-28 17:32:00,79.4,53.7,30.02,SSW,211,0.0,12.0,41,0.00,,SKC,0.00,VWS V14.01,2013-09-28 21:32:00,
2013-09-28 17:37:00,78.8,54.4,30.02,SSE,160,1.0,4.0,43,0.00,,SKC,0.00,VWS V14.01,2013-09-28 21:37:00,
2013-09-28 17:42:00,78.1,53.8,30.02,South,179,0.0,5.0,43,0.00,,SKC,0.00,VWS V14.01,2013-09-28 21:42:00,
2013-09-28 17:47:00,78.3,55.2,30.02,SSE,150,0.0,5.0,45,0.00,,SKC,0.00,VWS V14.01,2013-09-28 21:47:00,
2013-09-28 17:52:00,78.8,54.4,30.02,South,172,0.0,5.0,43,0.00,,SKC,0.00,VWS V14.01,2013-09-28 21:52:00,
2013-09-28 17:57:00,79.0,55.2,30.02,SW,217,4.0,6.0,44,0.00,,SKC,0.00,VWS V14.01,2013-09-28 21:57:00,
2013-09-28 18:02:00,78.6,54.9,30.02,SW,223,2.0,6.0,44,0.00,,SKC,0.00,VWS V14.01,2013-09-28 22:02:00,
2013-09-28 18:07:00,78.1,55.7,30.03,SE,142,0.0,2.0,46,0.00,,SKC,0.00,VWS V14.01,2013-09-28 22:07:00,
2013-09-28 18:12:00,77.9,56.1,30.03,SSE,152,0.0,3.0,47,0.00,,SKC,0.00,VWS V14.01,2013-09-28 22:12:00,
2013-09-28 18:18:00,78.1,55.0,30.03,SSE,165,0.0,4.0,45,0.00,,SKC,0.00,VWS V14.01,2013-09-28 22:18:00,
2013-09-28 18:23:00,78.3,55.2,30.03,SSE,167,1.0,5.0,45,0.00,,SKC,0.00,VWS V14.01,2013-09-28 22:23:00,
2013-09-28 18:28:00,78.5,55.4,30.03,South,172,2.0,7.0,45,0.00,,SKC,0.00,VWS V14.01,2013-09-28 22:28:00,
2013-09-28 18:33:00,78.5,55.4,30.03,SE,131,0.0,7.0,45,0.00,,SKC,0.00,VWS V14.01,2013-09-28 22:33:00,
2013-09-28 18:38:00,78.3,54.6,30.03,SSW,192,0.0,6.0,44,0.00,,SKC,0.00,VWS V14.01,2013-09-28 22:38:00,
2013-09-28 18:43:00,77.9,54.9,30.03,SSE,159,0.0,6.0,45,0.00,,SKC,0.00,VWS V14.01,2013-09-28 22:43:00,
2013-09-28 18:48:00,77.4,55.0,30.03,SE,143,0.0,6.0,46,0.00,,SKC,0.00,VWS V14.01,2013-09-28 22:48:00,
2013-09-28 18:53:00,76.8,55.1,30.03,SSE,153,0.0,6.0,47,0.00,,SKC,0.00,VWS V14.01,2013-09-28 22:53:00,
2013-09-28 18:58:00,76.3,55.8,30.03,SSW,212,0.0,6.0,49,0.00,,SKC,0.00,VWS V14.01,2013-09-28 22:58:00,
2013-09-28 19:03:00,75.8,55.3,30.03,SSW,212,0.0,6.0,49,0.00,,SKC,0.00,VWS V14.01,2013-09-28 23:03:00,
2013-09-28 19:09:00,75.4,54.9,30.03,SE,143,0.0,2.0,49,0.00,,SKC,0.00,VWS V14.01,2013-09-28 23:09:00,
2013-09-28 19:14:00,75.3,54.8,30.03,South,179,0.0,3.0,49,0.00,,SKC,0.00,VWS V14.01,2013-09-28 23:14:00,
2013-09-28 19:19:00,75.1,54.7,30.02,SE,139,1.0,3.0,49,0.00,,SKC,0.00,VWS V14.01,2013-09-28 23:19:00,
2013-09-28 19:24:00,75.1,54.7,30.02,SSE,163,0.0,3.0,49,0.00,,SKC,0.00,VWS V14.01,2013-09-28 23:24:00,
2013-09-28 19:29:00,74.9,54.5,30.02,SSE,163,0.0,3.0,49,0.00,,SKC,0.00,VWS V14.01,2013-09-28 23:29:00,
2013-09-28 19:34:00,74.7,54.3,30.02,SSE,163,1.0,3.0,49,0.00,,SKC,0.00,VWS V14.01,2013-09-28 23:34:00,
2013-09-28 19:39:00,74.6,54.8,30.02,SE,136,4.0,4.0,50,0.00,,SKC,0.00,VWS V14.01,2013-09-28 23:39:00,
2013-09-28 19:44:00,74.7,54.3,30.02,SE,129,1.0,4.0,49,0.00,,SKC,0.00,VWS V14.01,2013-09-28 23:44:00,
2013-09-28 19:49:00,74.6,54.2,30.02,SE,127,0.0,4.0,49,0.00,,SKC,0.00,VWS V14.01,2013-09-28 23:49:00,
2013-09-28 19:54:00,74.2,54.4,30.02,SE,127,0.0,4.0,50,0.00,,SKC,0.00,VWS V14.01,2013-09-28 23:54:00,
2013-09-28 20:00:00,73.9,54.7,30.02,SE,127,0.0,4.0,51,0.00,,SKC,0.00,VWS V14.01,2013-09-29 00:00:00,
2013-09-28 20:05:00,73.3,54.6,30.02,SE,127,0.0,4.0,52,0.00,,SKC,0.00,VWS V14.01,2013-09-29 00:05:00,
2013-09-28 20:10:00,73.0,54.9,30.02,SE,127,0.0,0.0,53,0.00,,SKC,0.00,VWS V14.01,2013-09-29 00:10:00,
2013-09-28 20:15:00,72.8,54.7,30.02,SE,129,0.0,2.0,53,0.00,,SKC,0.00,VWS V14.01,2013-09-29 00:15:00,
2013-09-28 20:20:00,72.7,55.1,30.03,SE,129,0.0,2.0,54,0.00,,SKC,0.00,VWS V14.01,2013-09-29 00:20:00,
2013-09-28 20:25:00,72.5,54.9,30.03,ESE,115,0.0,2.0,54,0.00,,SKC,0.00,VWS V14.01,2013-09-29 00:25:00,
2013-09-28 20:30:00,72.5,54.9,30.03,ESE,122,0.0,2.0,54,0.00,,SKC,0.00,VWS V14.01,2013-09-29 00:30:00,
2013-09-28 20:35:00,72.3,55.2,30.02,ESE,122,0.0,0.0,55,0.00,,SKC,0.00,VWS V14.01,2013-09-29 00:35:00,
2013-09-28 20:40:00,72.1,55.1,30.02,SE,127,0.0,1.0,55,0.00,,SKC,0.00,VWS V14.01,2013-09-29 00:40:00,
2013-09-28 20:45:00,72.3,55.2,30.02,SE,141,0.0,4.0,55,0.00,,SKC,0.00,VWS V14.01,2013-09-29 00:45:00,
2013-09-28 20:50:00,72.1,55.6,30.02,SE,141,0.0,4.0,56,0.00,,SKC,0.00,VWS V14.01,2013-09-29 00:50:00,
2013-09-28 20:55:00,72.0,55.5,30.02,SE,139,0.0,4.0,56,0.00,,SKC,0.00,VWS V14.01,2013-09-29 00:55:00,
2013-09-28 21:00:00,72.0,56.0,30.02,SSE,148,0.0,4.0,57,0.00,,SKC,0.00,VWS V14.01,2013-09-29 01:00:00,
2013-09-28 21:06:00,71.8,56.2,30.02,SSE,150,0.0,0.0,58,0.00,,SKC,0.00,VWS V14.01,2013-09-29 01:06:00,
2013-09-28 21:11:00,71.8,56.2,30.02,SSE,162,0.0,4.0,58,0.00,,SKC,0.00,VWS V14.01,2013-09-29 01:11:00,
2013-09-28 21:16:00,71.8,56.2,30.02,SE,125,0.0,4.0,58,0.00,,SKC,0.00,VWS V14.01,2013-09-29 01:16:00,
2013-09-28 21:21:00,71.6,56.5,30.01,SE,133,0.0,4.0,59,0.00,,SKC,0.00,VWS V14.01,2013-09-29 01:21:00,
2013-09-28 21:26:00,71.6,56.5,30.01,SE,134,1.0,4.0,59,0.00,,SKC,0.00,VWS V14.01,2013-09-29 01:26:00,
2013-09-28 21:31:00,71.3,56.7,30.01,SE,132,0.0,4.0,60,0.00,,SKC,0.00,VWS V14.01,2013-09-29 01:31:00,
2013-09-28 21:36:00,71.1,56.5,30.00,SE,126,0.0,2.0,60,0.00,,SKC,0.00,VWS V14.01,2013-09-29 01:36:00,
2013-09-28 21:41:00,70.9,56.8,30.00,SSE,162,2.0,2.0,61,0.00,,SKC,0.00,VWS V14.01,2013-09-29 01:41:00,
2013-09-28 21:46:00,70.9,56.8,30.00,ESE,110,0.0,2.0,61,0.00,,SKC,0.00,VWS V14.01,2013-09-29 01:46:00,
2013-09-28 21:51:00,70.9,56.8,30.01,ESE,108,1.0,2.0,61,0.00,,SKC,0.00,VWS V14.01,2013-09-29 01:51:00,
2013-09-28 21:56:00,70.8,57.2,30.01,SE,133,0.0,5.0,62,0.00,,SKC,0.00,VWS V14.01,2013-09-29 01:56:00,
2013-09-28 22:01:00,70.6,57.0,30.01,ESE,111,0.0,5.0,62,0.00,,SKC,0.00,VWS V14.01,2013-09-29 02:01:00,
2013-09-28 22:06:00,70.4,56.8,30.01,SE,129,0.0,3.0,62,0.00,,SKC,0.00,VWS V14.01,2013-09-29 02:06:00,
2013-09-28 22:12:00,70.3,57.1,30.01,SE,137,0.0,3.0,63,0.00,,SKC,0.00,VWS V14.01,2013-09-29 02:12:00,
2013-09-28 22:17:00,70.1,56.9,30.01,SE,137,0.0,3.0,63,0.00,,SKC,0.00,VWS V14.01,2013-09-29 02:17:00,
2013-09-28 22:22:00,69.9,56.8,30.00,SE,138,0.0,4.0,63,0.00,,SKC,0.00,VWS V14.01,2013-09-29 02:22:00,
2013-09-28 22:27:00,69.6,56.9,30.00,SSW,198,0.0,4.0,64,0.00,,SKC,0.00,VWS V14.01,2013-09-29 02:27:00,
2013-09-28 22:32:00,69.4,57.1,30.00,South,188,0.0,4.0,65,0.00,,SKC,0.00,VWS V14.01,2013-09-29 02:32:00,
2013-09-28 22:37:00,69.3,57.0,30.00,SE,139,0.0,1.0,65,0.00,,SKC,0.00,VWS V14.01,2013-09-29 02:37:00,
2013-09-28 22:42:00,69.1,57.3,30.00,SSE,159,0.0,2.0,66,0.00,,SKC,0.00,VWS V14.01,2013-09-29 02:42:00,
2013-09-28 22:47:00,68.9,57.1,30.00,SSE,154,0.0,2.0,66,0.00,,SKC,0.00,VWS V14.01,2013-09-29 02:47:00,
2013-09-28 22:52:00,68.8,57.0,30.01,SE,135,0.0,4.0,66,0.00,,SKC,0.00,VWS V14.01,2013-09-29 02:52:00,
2013-09-28 22:57:00,68.6,56.8,30.01,SE,134,1.0,4.0,66,0.00,,SKC,0.00,VWS V14.01,2013-09-29 02:57:00,
2013-09-28 23:02:00,68.8,57.0,30.01,SE,132,0.0,4.0,66,0.00,,SKC,0.00,VWS V14.01,2013-09-29 03:02:00,
2013-09-28 23:07:00,68.6,57.2,30.01,South,172,0.0,2.0,67,0.00,,SKC,0.00,VWS V14.01,2013-09-29 03:07:00,
2013-09-28 23:12:00,68.8,57.0,30.01,ESE,123,0.0,3.0,66,0.00,,SKC,0.00,VWS V14.01,2013-09-29 03:12:00,
2013-09-28 23:17:00,68.6,56.8,30.01,ESE,116,3.0,3.0,66,0.00,,SKC,0.00,VWS V14.01,2013-09-29 03:17:00,
2013-09-28 23:22:00,68.6,56.8,30.00,SE,136,0.0,3.0,66,0.00,,SKC,0.00,VWS V14.01,2013-09-29 03:22:00,
2013-09-28 23:27:00,68.4,57.0,30.00,South,183,0.0,3.0,67,0.00,,SKC,0.00,VWS V14.01,2013-09-29 03:27:00,
2013-09-28 23:32:00,68.3,56.9,30.00,ESE,112,1.0,3.0,67,0.00,,SKC,0.00,VWS V14.01,2013-09-29 03:32:00,
2013-09-28 23:38:00,68.4,56.6,30.00,SSE,167,0.0,2.0,66,0.00,,SKC,0.00,VWS V14.01,2013-09-29 03:38:00,
2013-09-28 23:43:00,68.4,56.6,30.00,SSE,149,1.0,4.0,66,0.00,,SKC,0.00,VWS V14.01,2013-09-29 03:43:00,
2013-09-28 23:48:00,68.3,56.5,30.00,SSE,147,0.0,4.0,66,0.00,,SKC,0.00,VWS V14.01,2013-09-29 03:48:00,
2013-09-28 23:53:00,68.1,56.7,30.01,SSE,158,1.0,4.0,67,0.00,,SKC,0.00,VWS V14.01,2013-09-29 03:53:00,
2013-09-28 23:58:00,67.9,56.5,30.01,SSE,148,0.0,4.0,67,0.00,,SKC,0.00,VWS V14.01,2013-09-29 03:58:00,